Time;durP1;ratioP1;P1;durP2;ratioP2;P2;SDS_P1;SDS_P2;PMS_P1;PMS_P2;Temp;Humidity;BMP_temperature;BMP_pressure;BME280_temperature;BME280_humidity;BME280_pressure;Samples;Min_cycle;Max_cycle;Signal;HPM_P1;HPM_P2
2024/01/14 00:01:45;;;;;;;;;;;2.70;82.60;;;;;;4133004;28;20665;-86
2024/01/14 00:04:04;;;;;;;;;;;2.70;82.50;;;;;;4137436;28;19928;-86
2024/01/14 00:06:23;;;;;;;;;;;2.80;82.40;;;;;;4135349;28;19921;-86
2024/01/14 00:08:43;;;;;;;;;;;2.70;82.90;;;;;;4136463;28;19925;-86
2024/01/14 00:11:02;;;;;;;;;;;2.70;82.10;;;;;;4135845;28;20099;-87
2024/01/14 00:13:21;;;;;;;;;;;2.70;81.90;;;;;;4131276;28;19967;-87
2024/01/14 00:15:42;;;;;;;;;;;2.80;82.00;;;;;;4150854;28;19947;-87
2024/01/14 00:18:01;;;;;;;;;;;2.60;81.80;;;;;;4137938;28;19991;-85
2024/01/14 00:20:21;;;;;;;;;;;2.60;82.60;;;;;;4133079;28;19988;-87
2024/01/14 00:22:40;;;;;;;;;;;2.60;81.80;;;;;;4126089;28;19932;-87
2024/01/14 00:24:59;;;;;;;;;;;2.70;81.90;;;;;;4134062;28;19929;-87
2024/01/14 00:27:19;;;;;;;;;;;2.50;81.80;;;;;;4135320;28;19925;-86
2024/01/14 00:29:38;;;;;;;;;;;2.60;81.90;;;;;;4133590;28;19924;-86
2024/01/14 00:31:58;;;;;;;;;;;2.60;81.90;;;;;;4139547;28;19959;-86
2024/01/14 00:34:18;;;;;;;;;;;2.50;81.70;;;;;;4134462;28;20498;-86
2024/01/14 00:36:38;;;;;;;;;;;2.50;81.80;;;;;;4139738;28;20027;-87
2024/01/14 00:38:57;;;;;;;;;;;2.50;82.50;;;;;;4151545;28;20046;-87
2024/01/14 00:41:16;;;;;;;;;;;2.50;81.80;;;;;;4150082;28;20485;-86
2024/01/14 00:43:35;;;;;;;;;;;2.40;81.80;;;;;;4135641;28;19924;-87
2024/01/14 00:45:55;;;;;;;;;;;2.40;81.80;;;;;;4134062;28;19987;-87
2024/01/14 00:48:14;;;;;;;;;;;2.40;81.80;;;;;;4136360;28;19936;-87
2024/01/14 00:50:33;;;;;;;;;;;2.40;81.90;;;;;;4135567;28;19921;-87
2024/01/14 00:52:52;;;;;;;;;;;2.40;81.90;;;;;;4137936;28;20012;-87
2024/01/14 00:55:11;;;;;;;;;;;2.40;81.90;;;;;;4138814;28;19972;-86
2024/01/14 00:57:30;;;;;;;;;;;2.40;82.60;;;;;;4135628;28;20013;-86
2024/01/14 00:59:50;;;;;;;;;;;2.40;81.90;;;;;;4136395;28;20338;-87
2024/01/14 01:02:09;;;;;;;;;;;2.30;81.80;;;;;;4133378;28;19920;-87
2024/01/14 01:04:28;;;;;;;;;;;2.30;81.80;;;;;;4151578;28;19923;-87
2024/01/14 01:06:47;;;;;;;;;;;2.30;81.80;;;;;;4132598;28;19968;-85
2024/01/14 01:09:07;;;;;;;;;;;2.30;81.70;;;;;;4145420;28;19970;-86
2024/01/14 01:11:26;;;;;;;;;;;2.30;81.80;;;;;;4132754;28;19960;-86
2024/01/14 01:13:46;;;;;;;;;;;2.30;81.90;;;;;;4150950;28;19933;-84
2024/01/14 01:16:05;;;;;;;;;;;2.30;82.00;;;;;;4134309;28;19968;-88
2024/01/14 01:18:21;;;;;;;;;;;2.30;81.90;;;;;;4135579;28;19924;-87
2024/01/14 01:20:41;;;;;;;;;;;2.30;82.00;;;;;;4140015;28;19967;-87
2024/01/14 01:23:00;;;;;;;;;;;2.30;82.10;;;;;;4139789;28;20413;-87
2024/01/14 01:25:19;;;;;;;;;;;2.30;82.30;;;;;;4133382;28;20007;-87
2024/01/14 01:27:52;;;;;;;;;;;2.30;82.50;;;;;;4135413;28;20584;-86
2024/01/14 01:30:11;;;;;;;;;;;2.30;82.70;;;;;;4135850;28;19978;-85
2024/01/14 01:32:31;;;;;;;;;;;2.20;82.40;;;;;;4132283;28;19979;-86
2024/01/14 01:34:50;;;;;;;;;;;2.20;82.50;;;;;;4151157;28;19924;-86
2024/01/14 01:37:10;;;;;;;;;;;2.20;83.40;;;;;;4148179;28;20103;-86
2024/01/14 01:39:29;;;;;;;;;;;2.20;83.40;;;;;;4133539;28;19920;-86
2024/01/14 01:41:49;;;;;;;;;;;2.20;83.30;;;;;;4135574;28;20005;-87
2024/01/14 01:44:08;;;;;;;;;;;2.20;82.60;;;;;;4129696;28;19972;-86
2024/01/14 01:46:27;;;;;;;;;;;2.30;82.70;;;;;;4127065;28;19928;-88
2024/01/14 01:48:47;;;;;;;;;;;2.30;82.60;;;;;;4135927;28;19963;-87
2024/01/14 01:51:06;;;;;;;;;;;2.20;82.50;;;;;;4136171;28;20007;-88
2024/01/14 01:53:26;;;;;;;;;;;2.20;82.50;;;;;;4132547;28;19945;-88
2024/01/14 01:55:45;;;;;;;;;;;2.20;82.50;;;;;;4143839;28;19943;-87
2024/01/14 01:58:05;;;;;;;;;;;2.20;82.60;;;;;;4131698;28;19920;-87
2024/01/14 02:00:24;;;;;;;;;;;2.20;82.60;;;;;;4134258;28;19964;-88
2024/01/14 02:02:43;;;;;;;;;;;2.30;82.70;;;;;;4134897;28;19928;-86
2024/01/14 02:05:03;;;;;;;;;;;2.20;82.60;;;;;;4133531;28;20382;-86
2024/01/14 02:07:22;;;;;;;;;;;2.30;82.60;;;;;;4147488;28;20440;-88
2024/01/14 02:09:41;;;;;;;;;;;2.20;82.60;;;;;;4129759;28;20609;-87
2024/01/14 02:12:00;;;;;;;;;;;2.40;82.80;;;;;;4134917;28;20323;-86
2024/01/14 02:14:20;;;;;;;;;;;2.30;82.80;;;;;;4129529;28;19953;-86
2024/01/14 02:16:39;;;;;;;;;;;2.30;82.80;;;;;;4134228;28;19924;-86
2024/01/14 02:18:58;;;;;;;;;;;2.30;82.80;;;;;;4131836;28;19929;-86
2024/01/14 02:21:19;;;;;;;;;;;2.30;82.80;;;;;;4128735;28;19928;-87
2024/01/14 02:23:39;;;;;;;;;;;2.30;82.80;;;;;;4131169;28;19936;-85
2024/01/14 02:25:58;;;;;;;;;;;2.40;82.80;;;;;;4135985;28;21414;-86
2024/01/14 02:28:20;;;;;;;;;;;2.30;82.70;;;;;;4146338;28;19975;-86
2024/01/14 02:30:39;;;;;;;;;;;2.40;82.70;;;;;;4145420;28;19959;-85
2024/01/14 02:32:58;;;;;;;;;;;2.50;82.70;;;;;;4131577;28;19927;-87
2024/01/14 02:35:18;;;;;;;;;;;2.40;82.70;;;;;;4130415;28;22289;-87
2024/01/14 02:37:43;;;;;;;;;;;2.40;82.70;;;;;;4133667;28;20394;-87
2024/01/14 02:40:02;;;;;;;;;;;2.40;82.80;;;;;;4131759;28;19940;-87
2024/01/14 02:42:21;;;;;;;;;;;2.40;82.80;;;;;;4139561;28;19972;-87
2024/01/14 02:44:41;;;;;;;;;;;2.50;82.80;;;;;;4137607;28;19971;-87
2024/01/14 02:47:00;;;;;;;;;;;2.40;82.80;;;;;;4132248;28;19937;-87
2024/01/14 02:49:19;;;;;;;;;;;2.40;82.70;;;;;;4126811;28;19936;-85
2024/01/14 02:51:39;;;;;;;;;;;2.40;82.80;;;;;;4131251;28;20013;-87
2024/01/14 02:53:58;;;;;;;;;;;2.40;82.70;;;;;;4136898;28;20016;-87
2024/01/14 02:56:18;;;;;;;;;;;2.40;82.70;;;;;;4135157;28;20331;-86
2024/01/14 02:58:38;;;;;;;;;;;2.50;83.60;;;;;;4131755;28;20020;-89
2024/01/14 03:00:57;;;;;;;;;;;2.40;83.00;;;;;;4134816;28;19928;-86
2024/01/14 03:03:16;;;;;;;;;;;2.40;83.20;;;;;;4132726;28;19925;-86
2024/01/14 03:05:35;;;;;;;;;;;2.40;83.20;;;;;;4134990;28;19924;-86
2024/01/14 03:07:55;;;;;;;;;;;2.40;83.10;;;;;;4133188;28;19920;-86
2024/01/14 03:10:14;;;;;;;;;;;2.40;83.00;;;;;;4148632;28;19967;-86
2024/01/14 03:12:33;;;;;;;;;;;2.50;83.10;;;;;;4142185;28;19939;-86
2024/01/14 03:14:53;;;;;;;;;;;2.40;83.00;;;;;;4131205;28;19964;-86
2024/01/14 03:17:12;;;;;;;;;;;2.40;83.10;;;;;;4132176;28;19929;-86
2024/01/14 03:19:31;;;;;;;;;;;2.60;83.10;;;;;;4143034;28;19955;-87
2024/01/14 03:21:51;;;;;;;;;;;2.50;82.80;;;;;;4150212;28;19981;-87
2024/01/14 03:24:10;;;;;;;;;;;2.50;83.60;;;;;;4133577;28;20510;-87
2024/01/14 03:26:29;;;;;;;;;;;2.50;82.80;;;;;;4131578;28;20016;-85
2024/01/14 03:28:48;;;;;;;;;;;2.50;82.80;;;;;;4133981;28;19971;-86
2024/01/14 03:31:12;;;;;;;;;;;2.50;82.90;;;;;;4133202;28;19924;-86
2024/01/14 03:33:31;;;;;;;;;;;2.50;83.00;;;;;;4123452;28;19932;-86
2024/01/14 03:35:50;;;;;;;;;;;2.50;83.00;;;;;;4128494;28;19924;-86
2024/01/14 03:38:09;;;;;;;;;;;2.50;83.10;;;;;;4132524;28;20498;-88
2024/01/14 03:40:29;;;;;;;;;;;2.50;83.20;;;;;;4147870;28;19923;-88
2024/01/14 03:42:48;;;;;;;;;;;2.50;83.90;;;;;;4134744;28;20191;-88
2024/01/14 03:45:07;;;;;;;;;;;2.50;84.00;;;;;;4132432;28;19924;-88
2024/01/14 03:47:27;;;;;;;;;;;2.50;84.10;;;;;;4127983;28;19921;-88
2024/01/14 03:49:46;;;;;;;;;;;2.60;83.50;;;;;;4131367;28;20020;-85
2024/01/14 03:52:05;;;;;;;;;;;2.50;83.40;;;;;;4131297;28;19924;-87
2024/01/14 03:54:25;;;;;;;;;;;2.50;83.30;;;;;;4130169;28;19944;-88
2024/01/14 03:56:44;;;;;;;;;;;2.50;83.40;;;;;;4135551;28;19950;-88
2024/01/14 03:59:03;;;;;;;;;;;2.50;84.40;;;;;;4132694;28;19953;-87
2024/01/14 04:01:22;;;;;;;;;;;2.50;83.70;;;;;;4133112;28;20453;-86
2024/01/14 04:03:41;;;;;;;;;;;2.50;83.90;;;;;;4128556;28;20028;-87
2024/01/14 04:06:04;;;;;;;;;;;2.50;84.50;;;;;;4131794;28;19971;-87
2024/01/14 04:08:23;;;;;;;;;;;2.60;83.80;;;;;;4131826;28;19968;-87
2024/01/14 04:10:42;;;;;;;;;;;2.50;83.80;;;;;;4135124;28;19968;-86
2024/01/14 04:13:02;;;;;;;;;;;2.50;84.40;;;;;;4150792;28;20366;-86
2024/01/14 04:15:22;;;;;;;;;;;2.50;83.70;;;;;;4132557;28;19927;-87
2024/01/14 04:17:41;;;;;;;;;;;2.50;83.80;;;;;;4133302;28;20009;-86
2024/01/14 04:20:00;;;;;;;;;;;2.50;83.80;;;;;;4136090;28;19929;-85
2024/01/14 04:22:20;;;;;;;;;;;2.50;83.70;;;;;;4136467;28;19922;-85
2024/01/14 04:24:39;;;;;;;;;;;2.50;83.70;;;;;;4130532;28;19920;-86
2024/01/14 04:26:59;;;;;;;;;;;2.60;83.70;;;;;;4136007;28;20406;-87
2024/01/14 04:29:18;;;;;;;;;;;2.50;84.40;;;;;;4131215;28;20330;-87
2024/01/14 04:31:37;;;;;;;;;;;2.60;83.90;;;;;;4136253;28;19932;-87
2024/01/14 04:33:58;;;;;;;;;;;2.60;84.50;;;;;;4136107;28;19945;-87
2024/01/14 04:36:17;;;;;;;;;;;2.60;83.90;;;;;;4148092;28;20012;-86
2024/01/14 04:38:36;;;;;;;;;;;2.60;84.00;;;;;;4146246;28;20421;-87
2024/01/14 04:40:56;;;;;;;;;;;2.60;84.00;;;;;;4137082;28;20402;-87
2024/01/14 04:43:15;;;;;;;;;;;2.60;83.90;;;;;;4136047;28;20307;-87
2024/01/14 04:45:34;;;;;;;;;;;2.60;83.90;;;;;;4149034;28;19928;-86
2024/01/14 04:47:54;;;;;;;;;;;2.60;84.70;;;;;;4130787;28;19926;-87
2024/01/14 04:50:13;;;;;;;;;;;2.60;83.90;;;;;;4150412;28;19920;-87
2024/01/14 04:52:32;;;;;;;;;;;2.60;84.00;;;;;;4133888;28;19925;-86
2024/01/14 04:54:52;;;;;;;;;;;2.70;84.10;;;;;;4136628;28;19936;-86
2024/01/14 04:57:11;;;;;;;;;;;2.70;84.10;;;;;;4135014;28;19940;-86
2024/01/14 04:59:30;;;;;;;;;;;2.70;84.00;;;;;;4133023;28;19929;-86
2024/01/14 05:01:49;;;;;;;;;;;2.80;83.90;;;;;;4150328;28;19943;-85
2024/01/14 05:04:09;;;;;;;;;;;2.70;83.80;;;;;;4137413;28;19956;-85
2024/01/14 05:06:28;;;;;;;;;;;2.70;83.80;;;;;;4132985;28;19928;-86
2024/01/14 05:08:47;;;;;;;;;;;2.90;83.90;;;;;;4137016;28;19932;-85
2024/01/14 05:11:06;;;;;;;;;;;2.70;83.80;;;;;;4132877;28;20761;-85
2024/01/14 05:13:25;;;;;;;;;;;2.70;83.90;;;;;;4133449;28;20395;-85
2024/01/14 05:15:45;;;;;;;;;;;2.70;83.90;;;;;;4150193;28;19994;-86
2024/01/14 05:18:04;;;;;;;;;;;2.70;83.80;;;;;;4138414;28;20021;-87
2024/01/14 05:20:23;;;;;;;;;;;2.80;83.90;;;;;;4134967;28;19920;-87
2024/01/14 05:22:42;;;;;;;;;;;2.90;83.90;;;;;;4134707;28;20293;-86
2024/01/14 05:25:02;;;;;;;;;;;2.70;84.60;;;;;;4133286;28;19919;-86
2024/01/14 05:27:21;;;;;;;;;;;2.70;83.80;;;;;;4129658;28;20013;-87
2024/01/14 05:29:41;;;;;;;;;;;2.70;84.60;;;;;;4132044;28;19964;-85
2024/01/14 05:32:00;;;;;;;;;;;2.70;84.60;;;;;;4130999;28;19929;-87
2024/01/14 05:34:19;;;;;;;;;;;2.70;83.80;;;;;;4133943;28;19924;-88
2024/01/14 05:36:38;;;;;;;;;;;2.70;83.80;;;;;;4132228;28;19920;-86
2024/01/14 05:38:58;;;;;;;;;;;2.80;83.90;;;;;;4136783;28;19925;-87
2024/01/14 05:41:17;;;;;;;;;;;2.70;83.90;;;;;;4141623;28;19937;-85
2024/01/14 05:43:36;;;;;;;;;;;2.70;83.80;;;;;;4148138;28;20013;-86
2024/01/14 05:45:55;;;;;;;;;;;2.70;83.80;;;;;;4136559;28;19928;-87
2024/01/14 05:48:15;;;;;;;;;;;2.70;83.90;;;;;;4133224;28;20311;-87
2024/01/14 05:50:34;;;;;;;;;;;2.70;83.80;;;;;;4132714;28;20330;-87
2024/01/14 05:53:10;;;;;;;;;;;2.70;83.70;;;;;;4179606;28;19923;-82
2024/01/14 05:55:29;;;;;;;;;;;2.70;84.30;;;;;;4180066;28;20554;-82
2024/01/14 05:57:48;;;;;;;;;;;2.70;83.60;;;;;;4165938;28;19993;-82
2024/01/14 06:00:08;;;;;;;;;;;2.70;83.50;;;;;;4166362;28;19923;-82
2024/01/14 06:02:27;;;;;;;;;;;2.80;83.50;;;;;;4167714;28;20551;-82
2024/01/14 06:04:46;;;;;;;;;;;2.70;83.50;;;;;;4167619;28;19924;-81
2024/01/14 06:07:05;;;;;;;;;;;2.80;83.60;;;;;;4169358;28;20657;-83
2024/01/14 06:09:24;;;;;;;;;;;2.80;83.60;;;;;;4169057;28;19999;-81
2024/01/14 06:11:44;;;;;;;;;;;2.80;83.60;;;;;;4167973;28;19928;-83
2024/01/14 06:14:03;;;;;;;;;;;2.80;83.60;;;;;;4165815;28;19924;-81
2024/01/14 06:16:22;;;;;;;;;;;2.80;83.50;;;;;;4165593;28;19924;-83
2024/01/14 06:18:42;;;;;;;;;;;2.80;83.50;;;;;;4173405;28;20322;-79
2024/01/14 06:21:01;;;;;;;;;;;2.80;83.40;;;;;;4170179;28;19924;-82
2024/01/14 06:23:21;;;;;;;;;;;2.80;83.20;;;;;;4170973;28;20295;-82
2024/01/14 06:25:40;;;;;;;;;;;2.80;83.90;;;;;;4166710;28;19927;-81
2024/01/14 06:28:00;;;;;;;;;;;2.80;83.00;;;;;;4166831;28;19963;-83
2024/01/14 06:30:19;;;;;;;;;;;2.80;83.00;;;;;;4165214;28;19959;-84
2024/01/14 06:32:39;;;;;;;;;;;2.80;82.90;;;;;;4166142;28;20015;-81
2024/01/14 06:34:59;;;;;;;;;;;2.80;82.90;;;;;;4161776;28;20361;-84
2024/01/14 06:37:18;;;;;;;;;;;2.80;82.90;;;;;;4162053;28;19975;-83
2024/01/14 06:39:37;;;;;;;;;;;2.80;82.90;;;;;;4167632;28;19940;-83
2024/01/14 06:41:56;;;;;;;;;;;2.90;83.00;;;;;;4162581;28;21314;-84
2024/01/14 06:44:16;;;;;;;;;;;2.80;83.00;;;;;;4164371;28;19924;-82
2024/01/14 06:46:41;;;;;;;;;;;2.80;83.10;;;;;;4174936;28;19974;-84
2024/01/14 06:49:00;;;;;;;;;;;2.90;83.10;;;;;;4176931;28;20529;-84
2024/01/14 06:51:20;;;;;;;;;;;3.00;83.30;;;;;;4165316;28;19992;-83
2024/01/14 06:53:39;;;;;;;;;;;2.90;84.00;;;;;;4179707;28;19924;-83
2024/01/14 06:56:00;;;;;;;;;;;3.00;83.40;;;;;;4183161;28;19928;-83
2024/01/14 06:58:19;;;;;;;;;;;2.90;83.50;;;;;;4204194;28;19963;-81
2024/01/14 07:00:39;;;;;;;;;;;3.00;83.50;;;;;;4184900;28;20090;-80
2024/01/14 07:02:58;;;;;;;;;;;3.00;83.60;;;;;;4179178;28;20175;-83
2024/01/14 07:05:17;;;;;;;;;;;3.00;83.60;;;;;;4170322;28;20243;-84
2024/01/14 07:07:36;;;;;;;;;;;3.10;83.60;;;;;;4171567;28;19915;-84
2024/01/14 07:09:56;;;;;;;;;;;3.10;83.50;;;;;;4170537;28;19976;-82
2024/01/14 07:12:15;;;;;;;;;;;3.10;83.60;;;;;;4171503;28;20352;-83
2024/01/14 07:14:34;;;;;;;;;;;3.10;84.40;;;;;;4170311;28;19975;-83
2024/01/14 07:16:53;;;;;;;;;;;3.10;84.30;;;;;;4171623;28;19999;-83
2024/01/14 07:19:12;;;;;;;;;;;3.20;83.70;;;;;;4171269;28;19924;-83
2024/01/14 07:21:32;;;;;;;;;;;3.10;83.60;;;;;;4169111;28;19971;-83
2024/01/14 07:23:51;;;;;;;;;;;3.10;83.50;;;;;;4170938;28;19924;-83
2024/01/14 07:26:15;;;;;;;;;;;3.10;83.20;;;;;;4170083;28;19951;-83
2024/01/14 07:28:34;;;;;;;;;;;3.10;83.10;;;;;;4165910;28;20255;-84
2024/01/14 07:30:53;;;;;;;;;;;3.10;83.10;;;;;;4168299;28;20020;-82
2024/01/14 07:33:12;;;;;;;;;;;3.10;83.80;;;;;;4167819;28;19947;-83
2024/01/14 07:35:31;;;;;;;;;;;3.10;83.10;;;;;;4168822;28;20090;-83
2024/01/14 07:37:52;;;;;;;;;;;3.10;83.10;;;;;;4168287;28;20714;-84
2024/01/14 07:40:12;;;;;;;;;;;3.30;83.20;;;;;;4170596;28;19946;-83
2024/01/14 07:42:31;;;;;;;;;;;3.10;83.00;;;;;;4168677;28;19924;-84
2024/01/14 07:44:51;;;;;;;;;;;3.30;83.10;;;;;;4170483;28;19924;-83
2024/01/14 07:47:10;;;;;;;;;;;3.20;83.00;;;;;;4171931;28;19966;-84
2024/01/14 07:49:29;;;;;;;;;;;3.20;82.90;;;;;;4167206;28;19950;-84
2024/01/14 07:51:49;;;;;;;;;;;3.20;82.90;;;;;;4171780;28;20004;-83
2024/01/14 07:54:08;;;;;;;;;;;3.20;82.90;;;;;;4172840;28;19924;-84
2024/01/14 07:56:27;;;;;;;;;;;3.20;83.00;;;;;;4174251;28;19947;-83
2024/01/14 07:58:46;;;;;;;;;;;3.20;83.70;;;;;;4176189;28;19939;-83
2024/01/14 08:01:06;;;;;;;;;;;3.20;82.90;;;;;;4167335;28;19927;-83
2024/01/14 08:03:25;;;;;;;;;;;3.20;83.00;;;;;;4171466;28;19943;-83
2024/01/14 08:05:44;;;;;;;;;;;3.20;83.10;;;;;;4168444;28;19927;-83
2024/01/14 08:08:06;;;;;;;;;;;3.20;83.10;;;;;;4167261;28;19931;-83
2024/01/14 08:10:26;;;;;;;;;;;3.20;83.00;;;;;;4168696;28;19927;-82
2024/01/14 08:12:45;;;;;;;;;;;3.20;82.90;;;;;;4171589;28;20020;-84
2024/01/14 08:15:05;;;;;;;;;;;3.20;82.90;;;;;;4167819;28;19963;-84
2024/01/14 08:17:25;;;;;;;;;;;3.20;82.80;;;;;;4169315;28;20287;-83
2024/01/14 08:19:45;;;;;;;;;;;3.30;82.90;;;;;;4170720;28;19982;-83
2024/01/14 08:22:04;;;;;;;;;;;3.30;82.70;;;;;;4169378;28;19943;-83
2024/01/14 08:24:24;;;;;;;;;;;3.30;82.70;;;;;;4171404;28;19997;-84
2024/01/14 08:26:44;;;;;;;;;;;3.30;82.40;;;;;;4171464;28;19986;-84
2024/01/14 08:29:02;;;;;;;;;;;3.40;82.50;;;;;;4170457;28;19944;-84
2024/01/14 08:31:22;;;;;;;;;;;3.40;82.40;;;;;;4168812;28;20516;-84
2024/01/14 08:33:43;;;;;;;;;;;3.40;82.40;;;;;;4170582;28;19916;-83
2024/01/14 08:36:03;;;;;;;;;;;3.40;82.90;;;;;;4173338;28;19988;-83
2024/01/14 08:38:23;;;;;;;;;;;3.40;81.90;;;;;;4170058;28;19919;-84
2024/01/14 08:40:43;;;;;;;;;;;3.50;81.80;;;;;;4172017;28;20139;-82
2024/01/14 08:43:02;;;;;;;;;;;3.50;81.80;;;;;;4179988;28;19959;-84
2024/01/14 08:45:21;;;;;;;;;;;3.40;81.80;;;;;;4170150;28;20580;-83
2024/01/14 08:47:40;;;;;;;;;;;3.40;81.70;;;;;;4170616;28;19928;-81
2024/01/14 08:50:00;;;;;;;;;;;3.50;81.80;;;;;;4166147;28;19920;-81
2024/01/14 08:52:19;;;;;;;;;;;3.50;81.90;;;;;;4172459;28;20046;-84
2024/01/14 08:54:38;;;;;;;;;;;3.50;81.90;;;;;;4184925;28;20035;-81
2024/01/14 08:56:58;;;;;;;;;;;3.50;81.80;;;;;;4175734;28;19919;-84
2024/01/14 08:59:17;;;;;;;;;;;3.60;81.90;;;;;;4174306;28;19935;-83
2024/01/14 09:01:37;;;;;;;;;;;3.50;82.50;;;;;;4172609;28;20115;-83
2024/01/14 09:03:56;;;;;;;;;;;3.50;81.90;;;;;;4177445;28;20097;-83
2024/01/14 09:06:15;;;;;;;;;;;3.60;82.00;;;;;;4178513;28;19939;-82
2024/01/14 09:08:34;;;;;;;;;;;3.50;81.90;;;;;;4184539;28;19932;-85
2024/01/14 09:10:54;;;;;;;;;;;3.60;82.00;;;;;;4185413;28;20429;-83
2024/01/14 09:13:13;;;;;;;;;;;3.60;82.10;;;;;;4184873;28;20520;-84
2024/01/14 09:15:33;;;;;;;;;;;3.60;82.00;;;;;;4190607;28;19920;-84
2024/01/14 09:17:53;;;;;;;;;;;3.70;82.00;;;;;;4185325;28;19939;-83
2024/01/14 09:20:12;;;;;;;;;;;3.70;82.10;;;;;;4181787;28;19932;-84
2024/01/14 09:22:31;;;;;;;;;;;3.70;82.10;;;;;;4186020;28;19927;-84
2024/01/14 09:24:50;;;;;;;;;;;3.70;82.10;;;;;;4192377;28;19940;-83
2024/01/14 09:27:10;;;;;;;;;;;3.70;82.20;;;;;;4193294;28;19947;-84
2024/01/14 09:29:32;;;;;;;;;;;3.60;82.20;;;;;;4191762;28;19928;-84
2024/01/14 09:31:51;;;;;;;;;;;3.70;82.90;;;;;;4184111;28;19927;-84
2024/01/14 09:34:10;;;;;;;;;;;3.60;82.80;;;;;;4181582;28;19943;-84
2024/01/14 09:36:32;;;;;;;;;;;3.70;83.00;;;;;;4186569;28;19959;-85
2024/01/14 09:38:51;;;;;;;;;;;3.70;82.40;;;;;;4184433;28;19924;-84
2024/01/14 09:47:27;;;;;;;;;;;3.70;82.60;;;;;;4164770;28;19919;-86
2024/01/14 09:49:45;;;;;;;;;;;3.70;82.50;;;;;;4177831;28;19972;-85
2024/01/14 09:52:05;;;;;;;;;;;3.70;82.50;;;;;;4183616;28;20217;-86
2024/01/14 09:54:24;;;;;;;;;;;3.70;82.40;;;;;;4184761;28;20204;-86
2024/01/14 09:56:44;;;;;;;;;;;3.70;82.40;;;;;;4182076;28;19919;-86
2024/01/14 09:59:04;;;;;;;;;;;3.70;82.30;;;;;;4179588;28;20290;-86
2024/01/14 10:01:23;;;;;;;;;;;3.70;82.20;;;;;;4185365;28;19919;-86
2024/01/14 10:03:42;;;;;;;;;;;3.70;82.20;;;;;;4180795;28;19924;-86
2024/01/14 10:06:01;;;;;;;;;;;3.70;82.30;;;;;;4183350;28;19927;-86
2024/01/14 10:08:20;;;;;;;;;;;3.80;82.30;;;;;;4181357;28;20394;-87
2024/01/14 10:10:39;;;;;;;;;;;3.80;82.40;;;;;;4178923;28;20343;-86
2024/01/14 10:12:59;;;;;;;;;;;3.70;82.30;;;;;;4177387;28;20006;-87
2024/01/14 10:15:18;;;;;;;;;;;3.70;82.30;;;;;;4180203;28;19941;-85
2024/01/14 10:17:37;;;;;;;;;;;3.70;82.20;;;;;;4195802;28;19977;-87
2024/01/14 10:19:59;;;;;;;;;;;3.70;82.90;;;;;;4181197;28;20361;-86
2024/01/14 10:22:19;;;;;;;;;;;3.70;82.20;;;;;;4183698;28;19924;-86
2024/01/14 10:24:38;;;;;;;;;;;3.80;82.20;;;;;;4186946;28;20511;-87
2024/01/14 10:26:57;;;;;;;;;;;3.80;82.90;;;;;;4179295;28;20387;-87
2024/01/14 10:29:17;;;;;;;;;;;3.70;82.40;;;;;;4185219;28;19971;-86
2024/01/14 10:31:36;;;;;;;;;;;3.80;82.50;;;;;;4178365;28;19935;-86
2024/01/14 10:33:57;;;;;;;;;;;3.80;82.60;;;;;;4179765;28;19923;-86
2024/01/14 10:36:16;;;;;;;;;;;3.70;82.60;;;;;;4179532;28;19923;-86
2024/01/14 10:38:36;;;;;;;;;;;3.70;82.60;;;;;;4184208;28;19928;-86
2024/01/14 10:40:55;;;;;;;;;;;3.80;82.80;;;;;;4183280;28;19990;-86
2024/01/14 10:43:14;;;;;;;;;;;3.70;82.80;;;;;;4179062;28;20031;-86
2024/01/14 10:45:33;;;;;;;;;;;3.70;82.80;;;;;;4180420;28;19962;-87
2024/01/14 10:47:55;;;;;;;;;;;3.90;82.90;;;;;;4184970;28;19919;-87
2024/01/14 10:50:17;;;;;;;;;;;3.70;83.60;;;;;;4179368;28;19966;-86
2024/01/14 10:52:38;;;;;;;;;;;3.80;82.80;;;;;;4181856;28;19928;-86
2024/01/14 10:55:01;;;;;;;;;;;3.80;82.70;;;;;;4182051;28;19928;-86
2024/01/14 10:57:29;;;;;;;;;;;3.70;82.60;;;;;;4183271;28;20025;-86
2024/01/14 10:59:51;;;;;;;;;;;3.70;82.60;;;;;;4182868;28;20384;-87
2024/01/14 11:02:14;;;;;;;;;;;3.70;82.60;;;;;;4181178;28;19923;-86
2024/01/14 11:04:34;;;;;;;;;;;3.70;82.60;;;;;;4177306;28;20005;-86
2024/01/14 11:06:55;;;;;;;;;;;3.70;82.60;;;;;;4180917;28;19919;-87
2024/01/14 11:09:14;;;;;;;;;;;3.70;83.30;;;;;;4177891;28;20351;-87
2024/01/14 11:11:41;;;;;;;;;;;3.70;82.60;;;;;;4183913;28;20360;-87
2024/01/14 11:14:22;;;;;;;;;;;3.70;83.40;;;;;;4181895;28;20240;-86
2024/01/14 11:16:46;;;;;;;;;;;3.70;82.80;;;;;;4180958;28;19923;-86
2024/01/14 11:19:06;;;;;;;;;;;3.70;82.80;;;;;;4183229;28;19939;-87
2024/01/14 11:21:29;;;;;;;;;;;3.70;82.80;;;;;;4183161;28;20289;-87
2024/01/14 11:23:48;;;;;;;;;;;3.70;82.80;;;;;;4178277;28;20063;-87
2024/01/14 11:26:07;;;;;;;;;;;3.80;83.60;;;;;;4175394;28;19940;-88
2024/01/14 11:28:26;;;;;;;;;;;3.70;83.30;;;;;;4198589;22;19935;-81
2024/01/14 11:30:48;;;;;;;;;;;3.70;82.60;;;;;;4189601;28;19943;-84
2024/01/14 11:33:29;;;;;;;;;;;3.70;82.50;;;;;;4194364;28;19982;-84
2024/01/14 11:35:48;;;;;;;;;;;3.80;82.60;;;;;;4191820;28;20210;-84
2024/01/14 11:38:27;;;;;;;;;;;3.80;82.30;;;;;;4191682;28;19928;-84
2024/01/14 11:40:46;;;;;;;;;;;3.80;82.00;;;;;;4192482;28;20348;-85
2024/01/14 11:43:07;;;;;;;;;;;3.80;82.60;;;;;;4201126;28;20070;-84
2024/01/14 11:45:28;;;;;;;;;;;3.90;82.40;;;;;;4196962;28;19927;-83
2024/01/14 11:47:47;;;;;;;;;;;3.90;81.70;;;;;;4200391;28;19928;-85
2024/01/14 11:50:08;;;;;;;;;;;3.90;81.70;;;;;;4196136;28;19923;-84
2024/01/14 11:52:28;;;;;;;;;;;3.90;82.20;;;;;;4195126;28;19970;-82
2024/01/14 11:54:48;;;;;;;;;;;4.00;82.30;;;;;;4191563;28;19922;-82
2024/01/14 11:57:23;;;;;;;;;;;4.00;82.30;;;;;;4192933;28;19984;-83
2024/01/14 11:59:42;;;;;;;;;;;4.10;81.50;;;;;;4203270;28;20062;-84
2024/01/14 12:02:02;;;;;;;;;;;4.00;80.70;;;;;;4189901;28;19919;-84
2024/01/14 12:04:23;;;;;;;;;;;4.10;80.90;;;;;;4187147;28;19923;-83
2024/01/14 12:06:46;;;;;;;;;;;4.20;81.50;;;;;;4191073;28;19965;-84
2024/01/14 12:09:06;;;;;;;;;;;4.10;80.00;;;;;;4184888;28;19939;-83
2024/01/14 12:11:26;;;;;;;;;;;4.20;80.30;;;;;;4190103;28;19922;-83
2024/01/14 12:13:45;;;;;;;;;;;4.20;79.30;;;;;;4192090;28;19930;-83
2024/01/14 12:16:04;;;;;;;;;;;4.20;79.20;;;;;;4192359;28;20345;-83
2024/01/14 12:18:23;;;;;;;;;;;4.20;79.20;;;;;;4191593;28;19975;-83
2024/01/14 12:20:43;;;;;;;;;;;4.20;78.80;;;;;;4201073;28;20550;-83
2024/01/14 12:23:04;;;;;;;;;;;4.30;78.80;;;;;;4192241;28;19922;-84
2024/01/14 12:25:24;;;;;;;;;;;4.20;78.90;;;;;;4193147;28;19923;-84
2024/01/14 12:27:44;;;;;;;;;;;4.30;78.80;;;;;;4192711;28;19971;-83
2024/01/14 12:30:04;;;;;;;;;;;4.20;79.10;;;;;;4189814;28;19928;-83
2024/01/14 12:32:24;;;;;;;;;;;4.20;78.00;;;;;;4188519;28;19959;-83
2024/01/14 12:34:43;;;;;;;;;;;4.20;77.80;;;;;;4187321;28;19923;-85
2024/01/14 12:37:02;;;;;;;;;;;4.20;77.70;;;;;;4189102;28;19947;-84
2024/01/14 12:39:23;;;;;;;;;;;4.20;77.70;;;;;;4188455;28;19955;-83
2024/01/14 12:41:42;;;;;;;;;;;4.20;77.60;;;;;;4184438;28;19927;-84
2024/01/14 12:44:01;;;;;;;;;;;4.20;77.40;;;;;;4188061;28;19928;-83
2024/01/14 12:46:20;;;;;;;;;;;4.20;77.40;;;;;;4188976;28;19939;-83
2024/01/14 12:48:42;;;;;;;;;;;4.20;78.20;;;;;;4190115;28;19919;-84
2024/01/14 12:51:04;;;;;;;;;;;4.10;77.20;;;;;;4185110;28;19943;-82
2024/01/14 12:53:24;;;;;;;;;;;4.10;77.00;;;;;;4183937;28;19935;-84
2024/01/14 12:55:29;;;;;;;;;;;4.10;77.10;;;;;;4187323;28;19966;-83
2024/01/14 12:57:30;;;;;;;;;;;4.10;77.10;;;;;;4186030;28;20082;-83
2024/01/14 12:59:31;;;;;;;;;;;4.10;77.30;;;;;;4185121;28;19920;-83
2024/01/14 13:01:32;;;;;;;;;;;4.20;77.30;;;;;;4213835;28;19912;-81
2024/01/14 13:03:36;;;;;;;;;;;4.20;77.30;;;;;;4190155;28;20755;-83
2024/01/14 13:05:37;;;;;;;;;;;4.20;77.30;;;;;;4185328;28;19936;-82
2024/01/14 13:07:38;;;;;;;;;;;4.20;77.30;;;;;;4189541;28;19917;-81
2024/01/14 13:09:38;;;;;;;;;;;4.20;77.30;;;;;;4190590;28;19942;-82
2024/01/14 13:11:39;;;;;;;;;;;4.20;77.30;;;;;;4185747;28;20043;-81
2024/01/14 13:13:40;;;;;;;;;;;4.20;77.50;;;;;;4185406;28;20389;-81
2024/01/14 13:15:41;;;;;;;;;;;4.20;77.60;;;;;;4190392;28;19917;-82
2024/01/14 13:17:41;;;;;;;;;;;4.20;77.70;;;;;;4184282;28;19928;-83
2024/01/14 13:19:42;;;;;;;;;;;4.20;77.70;;;;;;4188548;28;20350;-82
2024/01/14 13:21:42;;;;;;;;;;;4.20;77.50;;;;;;4182277;28;19921;-82
2024/01/14 13:23:43;;;;;;;;;;;4.10;77.40;;;;;;4184747;28;19920;-82
2024/01/14 13:25:43;;;;;;;;;;;4.20;77.60;;;;;;4187239;28;19948;-82
2024/01/14 13:27:44;;;;;;;;;;;4.20;77.30;;;;;;4183262;28;19921;-83
2024/01/14 13:29:47;;;;;;;;;;;4.10;77.10;;;;;;4186695;28;20396;-83
2024/01/14 13:31:49;;;;;;;;;;;4.10;77.10;;;;;;4185895;28;19920;-83
2024/01/14 13:33:49;;;;;;;;;;;4.10;77.10;;;;;;4188439;28;20722;-83
2024/01/14 13:35:50;;;;;;;;;;;4.10;76.80;;;;;;4189951;28;19917;-83
2024/01/14 13:37:51;;;;;;;;;;;4.10;76.70;;;;;;4186305;28;19913;-82
2024/01/14 13:39:53;;;;;;;;;;;4.10;76.70;;;;;;4171961;28;19913;-82
2024/01/14 13:41:54;;;;;;;;;;;4.00;76.90;;;;;;4165177;28;20438;-83
2024/01/14 13:43:54;;;;;;;;;;;4.10;77.00;;;;;;4186419;28;19964;-83
2024/01/14 13:45:55;;;;;;;;;;;4.10;77.00;;;;;;4172138;28;19931;-82